Flight Track Log - Related Links

Times and Time Zones

All times are in EST time to prevent confusion due to time zone crossing. See the SWA1725 flight status page for this flight to view local times or setup timezone preferences in your user account.

Time Position Orientation Groundspeed Altitude Reporting Facility
EST Latitude Longitude Course Direction KTS MPH feet Rate Location/Type
Mon 09:10:57 AM 37.7211 -122.2475 285° West 159 183 1,300  Level Oakland Center
Mon 09:11:58 AM 37.7361 -122.3181 285° West 210 242 4,000 2,777 Climbing Oakland Center
Mon 09:12:58 AM 37.7511 -122.4053 282° West 257 296 6,900 3,322 Climbing Oakland Center
Mon 09:13:59 AM 37.6922 -122.4672 220° Southwest 277 319 10,700 3,322 Climbing Oakland Center
Mon 09:14:59 AM 37.6183 -122.4886 193° South 303 349 13,600 3,300 Climbing Oakland Center
Mon 09:15:59 AM 37.5533 -122.4000 133° Southeast 345 397 17,300 2,678 Climbing Oakland Center
Mon 09:17:00 AM 37.4831 -122.3106 135° Southeast 357 411 19,000 2,033 Climbing Oakland Center
Mon 09:18:00 AM 37.4117 -122.2161 134° Southeast 368 423 21,400 2,579 Climbing Oakland Center
Mon 09:19:01 AM 37.3356 -122.1178 134° Southeast 387 445 24,200 2,529 Climbing Oakland Center
Mon 09:20:01 AM 37.2572 -122.0150 134° Southeast 404 465 26,500 2,182 Climbing Oakland Center
Mon 09:21:02 AM 37.1747 -121.9078 134° Southeast 424 488 28,600 1,934 Climbing Oakland Center
Mon 09:22:02 AM 37.0956 -121.8058 134° Southeast 440 506 30,400 1,884 Climbing Oakland Center
Mon 09:23:03 AM 36.9972 -121.6864 136° Southeast 454 522 32,400 2,231 Climbing Oakland Center
Mon 09:24:03 AM 36.9114 -121.5736 134° Southeast 451 519 34,900 2,083 Climbing Oakland Center
Mon 09:25:04 AM 36.8272 -121.4617 133° Southeast 443 510 36,600 1,388 Climbing Oakland Center
Mon 09:26:04 AM 36.7336 -121.3475 136° Southeast 444 511 37,700 893 Climbing Oakland Center
Mon 09:27:05 AM 36.6442 -121.2297 133° Southeast 462 532 38,400 639 Climbing Oakland Center
Mon 09:28:06 AM 36.5517 -121.1142 135° Southeast 472 543 39,000 298 Climbing Oakland Center
Mon 09:29:06 AM 36.4578 -120.9944 134° Southeast 481 554 39,000  Level Oakland Center
Mon 09:30:07 AM 36.3647 -120.8744 134° Southeast 482 555 39,000  Level Oakland Center
Mon 09:31:07 AM 36.2725 -120.7558 134° Southeast 479 551 39,000  Level Oakland Center
Mon 09:32:08 AM 36.1778 -120.6397 135° Southeast 479 551 39,000  Level Oakland Center
Mon 09:33:09 AM 36.0836 -120.5217 135° Southeast 480 552 39,000  Level Oakland Center
Mon 09:34:09 AM 35.9900 -120.4031 134° Southeast 481 554 39,000  Level Oakland Center
Mon 09:35:10 AM 35.8942 -120.2853 135° Southeast 483 556 39,000  Level Oakland Center
Mon 09:36:11 AM 35.7986 -120.1664 135° Southeast 484 557 39,000  Level Oakland Center
Mon 09:37:11 AM 35.7031 -120.0481 135° Southeast 483 556 39,000  Level Oakland Center
Mon 09:38:12 AM 35.6017 -119.9372 138° Southeast 484 557 39,000  Level Oakland Center
Mon 09:39:13 AM 35.4900 -119.8433 146° Southeast 482 555 39,000  Level Oakland Center
Mon 09:40:14 AM 35.3803 -119.7481 145° Southeast 481 554 39,000 -298 Level Oakland Center
Mon 09:41:14 AM 35.2711 -119.6536 145° Southeast 478 550 38,400 -1,289 Descending Oakland Center
Mon 09:42:15 AM 35.1625 -119.5617 145° Southeast 475 547 36,400 -2,508 Descending Oakland Center
Mon 09:43:16 AM 35.0558 -119.4700 145° Southeast 471 542 33,300 -2,975 Descending Oakland Center
Mon 09:44:16 AM 34.9486 -119.3794 145° Southeast 469 540 30,400 -2,083 Descending Oakland Center
Mon 09:45:17 AM 34.8458 -119.2928 145° Southeast 456 525 29,100 -2,115 Descending Oakland Center
Mon 09:46:18 AM 34.7469 -119.2089 145° Southeast 439 505 26,100 -2,691 Descending Oakland Center
Mon 09:47:33 AM 34.6117 -119.0925 145° Southeast 438 504 23,000 -2,382 Descending Los Angeles Center
Mon 09:48:34 AM 34.5197 -119.0156 145° Southeast 401 461 20,700 -2,390 Descending Los Angeles Center
Mon 09:49:36 AM 34.4286 -118.9406 146° Southeast 395 455 18,100 -2,341 Descending Los Angeles Center
Mon 09:50:37 AM 34.3408 -118.8739 148° Southeast 368 423 15,900 -2,262 Descending Los Angeles Center
Mon 09:51:38 AM 34.2456 -118.8400 164° South 356 410 13,500 -2,293 Descending Los Angeles Center
Mon 09:52:40 AM 34.1525 -118.8050 163° South 350 403 11,200 -1,707 Descending Los Angeles Center
Mon 09:53:41 AM 34.0475 -118.7567 159° South 341 392 10,000 -590 Descending Los Angeles Center
Mon 09:54:42 AM 34.0294 -118.6589 103° East 303 349 10,000 -683 Level Los Angeles Center
Mon 09:55:44 AM 34.0206 -118.5642 96° East 288 331 8,600 -1,366 Descending Los Angeles Center
Mon 09:56:45 AM 34.0114 -118.4694 97° East 284 327 7,200 -1,463 Descending Los Angeles Center
Mon 09:57:47 AM 34.0208 -118.3786 83° East 280 322 5,600 -1,610 Descending Los Angeles Center
Mon 09:58:48 AM 34.0283 -118.2883 84° East 272 313 3,900 -1,082 Descending Los Angeles Center
Mon 09:59:49 AM 33.9881 -118.2606 150° Southeast 219 252 3,400 -1,024 Descending Los Angeles Center
Mon 10:00:51 AM 33.9667 -118.3114 243° Southwest 186 214 1,800 -1,317 Descending Los Angeles Center
Mon 10:01:52 AM 33.9575 -118.3625 258° West 171 197 700 -780 Descending Los Angeles Center
Mon 10:02:54 AM 33.9503 -118.4119 260° West 153 176 200 -484 Descending Los Angeles Center
Mon 10:04:00 AM 33.9425 -118.4081 228° Southwest  Level Estimated
Mon 10:11:00 AM 33.9425 -118.4081 228° Southwest  Level Estimated

Login

Don't have an account? Register now (free) for customized features, flight alerts, and more!